ADDS METAR Data INFO
IDs: Format: Raw Decoded Include TAF

Data at: 0937 UTC 25 Nov 2017

K6R3 250915Z AUTO 00000KT 7SM CLR 06/06 A2996 RMK AO2 T00640055
K6R3 250855Z AUTO 00000KT 7SM CLR 06/05 A2996 RMK AO2 T00610052
K6R3 250835Z AUTO 00000KT 7SM CLR 06/06 A2995 RMK AO2 T00640055
K6R3 250815Z AUTO 00000KT 7SM CLR 06/06 A2995 RMK AO2 T00640055
K6R3 250755Z AUTO 00000KT 7SM CLR 07/06 A2995 RMK AO2 T00650055
K6R3 250735Z AUTO 00000KT 7SM CLR 07/06 A2994 RMK AO2 T00670056
K6R3 250715Z AUTO 00000KT 10SM CLR 07/06 A2995 RMK AO2 T00700060
K6R3 250655Z AUTO 00000KT 7SM CLR 07/06 A2994 RMK AO2 T00670057
K6R3 250635Z AUTO 00000KT 7SM CLR 07/06 A2994 RMK AO2 T00670057
K6R3 250615Z AUTO 00000KT 7SM CLR 07/06 A2995 RMK AO2 T00690059
K6R3 250555Z AUTO 00000KT 7SM CLR 07/06 A2994 RMK AO2 T00700060 10130 20070 402200016
K6R3 250535Z AUTO 00000KT 7SM CLR 07/06 A2995 RMK AO2 T00730061
K6R3 250515Z AUTO 00000KT 7SM CLR 08/06 A2995 RMK AO2 T00750063
K6R3 250455Z AUTO 00000KT 7SM CLR 08/07 A2995 RMK AO2 T00800068
K6R3 250435Z AUTO 00000KT 7SM CLR 08/07 A2995 RMK AO2 T00800065
K6R3 250415Z AUTO 00000KT 7SM CLR 08/07 A2995 RMK AO2 T00820066
K6R3 250355Z AUTO 00000KT 7SM CLR 09/07 A2995 RMK AO2 T00850068
K6R3 250335Z AUTO 00000KT 7SM CLR 09/07 A2995 RMK AO2 T00870071
K6R3 250315Z AUTO 00000KT 7SM CLR 09/07 A2995 RMK AO2 T00920073
K6R3 250255Z AUTO 00000KT 7SM CLR 10/07 A2994 RMK AO2 T00950072
K6R3 250235Z AUTO 00000KT 7SM CLR 10/07 A2994 RMK AO2 T00960073
K6R3 250215Z AUTO 00000KT 7SM CLR 10/07 A2994 RMK AO2 T01030070
K6R3 250155Z AUTO 00000KT 7SM CLR 11/07 A2994 RMK AO2 T01070070
K6R3 250135Z AUTO 00000KT 10SM CLR 11/07 A2993 RMK AO2 T01070068
K6R3 250115Z AUTO 00000KT 10SM CLR 11/07 A2993 RMK AO2 T01100069
K6R3 250055Z AUTO 00000KT 7SM CLR 13/06 A2993 RMK AO2 T01270063
K6R3 250035Z AUTO 17003KT 7SM CLR 13/06 A2993 RMK AO2 T01260063
K6R3 250015Z AUTO 00000KT 10SM CLR 12/07 A2993 RMK AO2 T01200069
K6R3 242355Z AUTO 00000KT 7SM CLR 12/08 A2993 RMK AO2 T01170075 10220 20117
K6R3 242335Z AUTO 00000KT 10SM CLR 13/07 A2993 RMK AO2 T01270074
K6R3 242315Z AUTO 00000KT 10SM CLR 15/07 A2992 RMK AO2 T01470072
K6R3 242255Z AUTO 00000KT 7SM CLR 16/07 A2992 RMK AO2 T01620068
K6R3 242235Z AUTO 18004KT 7SM CLR 20/02 A2992 RMK AO2 T01950017
K6R3 242215Z AUTO 18003KT 10SM CLR 19/02 A2992 RMK AO2 T01900024
K6R3 242155Z AUTO 18006KT 10SM CLR 21/00 A2993 RMK AO2 T02131002
K6R3 242135Z AUTO 19006KT 7SM CLR 22/01 A2994 RMK AO2 T02150005
K6R3 242115Z AUTO 19005KT 7SM CLR 22/01 A2994 RMK AO2 T02160009
K6R3 242055Z AUTO 17003KT 7SM CLR 22/01 A2995 RMK AO2 T02180011
K6R3 242035Z AUTO 00000KT 10SM CLR 22/01 A2995 RMK AO2 T02180009
K6R3 242015Z AUTO 21005KT 7SM CLR 22/02 A2996 RMK AO2 T02190016
K6R3 241955Z AUTO 25004KT 7SM CLR 22/02 A2996 RMK AO2 T02170015
K6R3 241935Z AUTO 22007KT 10SM CLR 22/02 A2997 RMK AO2 T02170015
K6R3 241915Z AUTO 21004KT 10SM CLR 22/01 A2998 RMK AO2 T02150010
K6R3 241855Z AUTO 18004KT 7SM CLR 21/02 A3000 RMK AO2 T02120020
K6R3 241835Z AUTO 21004KT 5SM HZ CLR 21/02 A3001 RMK AO2 T02050022
K6R3 241815Z AUTO 24003KT 5SM HZ CLR 20/02 A3002 RMK AO2 T02010020
K6R3 241755Z AUTO 19004KT 10SM CLR 20/02 A3002 RMK AO2 T01950015 10196 20016
K6R3 241735Z AUTO 19006KT 7SM CLR 19/02 A3003 RMK AO2 T01900019
K6R3 241715Z AUTO 20003KT 10SM CLR 19/02 A3004 RMK AO2 T01890022
K6R3 241655Z AUTO 19005KT 7SM CLR 18/03 A3005 RMK AO2 T01800031
K6R3 241635Z AUTO 19005KT 10SM CLR 17/03 A3005 RMK AO2 T01740027
K6R3 241615Z AUTO 19004KT 7SM CLR 17/03 A3005 RMK AO2 T01660033
K6R3 241555Z AUTO 18005KT 7SM CLR 15/04 A3006 RMK AO2 T01540039
K6R3 241535Z AUTO 18003KT 7SM CLR 14/05 A3007 RMK AO2 T01380050
K6R3 241520Z AUTO 19003KT 7SM CLR 13/06 A3007 RMK AO2 T01260055
K6R3 241500Z AUTO 00000KT 7SM CLR 11/06 A3007 RMK AO2 T01060060
K6R3 241415Z AUTO 00000KT 7SM CLR 06/05 A3007 RMK AO2 T00600049
K6R3 241355Z AUTO 00000KT 7SM CLR 04/04 A3006 RMK AO2 T00430038
K6R3 241340Z AUTO 00000KT 4SM BR CLR 03/03 A3006 RMK AO2 T00310027
K6R3 241235Z AUTO 00000KT 5SM BR CLR 02/01 A3005 RMK AO2 T00160011
K6R3 241215Z AUTO 00000KT 7SM CLR 02/01 A3005 RMK AO2 T00170011
K6R3 241155Z AUTO 00000KT 5SM BR CLR 02/01 A3005 RMK AO2 T00180012 10037 20018
K6R3 241135Z AUTO 00000KT 7SM CLR 02/01 A3005 RMK AO2 T00200012
K6R3 241115Z AUTO 00000KT 7SM CLR 02/02 A3004 RMK AO2 T00200015
K6R3 241055Z AUTO 00000KT 7SM CLR 02/02 A3004 RMK AO2 T00210015
K6R3 241035Z AUTO 00000KT 7SM CLR 02/02 A3004 RMK AO2 T00230016
K6R3 241015Z AUTO 00000KT 7SM CLR 02/02 A3005 RMK AO2 T00230016
K6R3 240955Z AUTO 00000KT 5SM BR CLR 03/02 A3005 RMK AO2 T00250017
K6R3 240935Z AUTO 00000KT 7SM CLR 03/02 A3005 RMK AO2 T00250018
K6R3 240915Z AUTO 00000KT 7SM CLR 03/02 A3006 RMK AO2 T00280021
K6R3 240855Z AUTO 00000KT 7SM CLR 03/03 A3006 RMK AO2 T00320025
K6R3 240835Z AUTO 00000KT 7SM CLR 03/02 A3006 RMK AO2 T00290021
K6R3 240815Z AUTO 00000KT 7SM CLR 03/03 A3006 RMK AO2 T00310025
K6R3 240755Z AUTO 00000KT 7SM CLR 03/03 A3007 RMK AO2 T00310025
K6R3 240735Z AUTO 00000KT 7SM CLR 04/03 A3007 RMK AO2 T00350026
K6R3 240715Z AUTO 00000KT 7SM CLR 03/03 A3007 RMK AO2 T00330026
K6R3 240655Z AUTO 00000KT 7SM CLR 03/03 A3007 RMK AO2 T00330025
K6R3 240635Z AUTO 00000KT 7SM CLR 04/03 A3008 RMK AO2 T00350027
K6R3 240615Z AUTO 00000KT 7SM CLR 04/03 A3009 RMK AO2 T00360029
K6R3 240555Z AUTO 00000KT 5SM BR CLR 04/03 A3009 RMK AO2 T00380029 10085 20038 401760020
K6R3 240535Z AUTO 00000KT 7SM CLR 04/03 A3009 RMK AO2 T00410032
K6R3 240515Z AUTO 00000KT 7SM CLR 04/03 A3010 RMK AO2 T00430033
K6R3 240455Z AUTO 00000KT 7SM CLR 05/04 A3010 RMK AO2 T00480038
K6R3 240435Z AUTO 00000KT 5SM BR CLR 05/04 A3011 RMK AO2 T00460036
K6R3 240415Z AUTO 00000KT 7SM CLR 05/04 A3010 RMK AO2 T00470037
K6R3 240355Z AUTO 00000KT 7SM CLR 05/04 A3011 RMK AO2 T00500040
K6R3 240335Z AUTO 00000KT 7SM CLR 05/04 A3011 RMK AO2 T00520041
K6R3 240315Z AUTO 00000KT 7SM CLR 05/04 A3011 RMK AO2 T00530042
K6R3 240255Z AUTO 00000KT 7SM CLR 06/04 A3011 RMK AO2 T00550043
K6R3 240235Z AUTO 00000KT 7SM CLR 06/05 A3011 RMK AO2 T00570045
K6R3 240215Z AUTO 00000KT 7SM CLR 06/05 A3011 RMK AO2 T00600047
K6R3 240155Z AUTO 00000KT 7SM CLR 06/05 A3011 RMK AO2 T00610047
K6R3 240135Z AUTO 00000KT 10SM CLR 07/05 A3011 RMK AO2 T00650050
K6R3 240115Z AUTO 00000KT 7SM CLR 07/05 A3010 RMK AO2 T00670051
K6R3 240055Z AUTO 00000KT 10SM CLR 07/05 A3010 RMK AO2 T00740050
K6R3 240035Z AUTO 00000KT 10SM CLR 08/05 A3010 RMK AO2 T00770053
K6R3 240015Z AUTO 00000KT 10SM CLR 08/06 A3010 RMK AO2 T00810055
K6R3 232355Z AUTO 00000KT 7SM CLR 09/06 A3009 RMK AO2 T00860056 10176 20086
K6R3 232335Z AUTO 00000KT 10SM CLR 10/06 A3009 RMK AO2 T00960061
K6R3 232315Z AUTO 00000KT 7SM CLR 11/06 A3009 RMK AO2 T01130061
K6R3 232255Z AUTO 00000KT 7SM CLR 15/02 A3009 RMK AO2 T01480020
K6R3 232235Z AUTO 33003KT 7SM CLR 16/00 A3010 RMK AO2 T01621002
K6R3 232215Z AUTO 33004KT 10SM CLR 17/M01 A3010 RMK AO2 T01691012
K6R3 232155Z AUTO 33005KT 7SM CLR 17/M03 A3010 RMK AO2 T01711030